Kaltag, AK

5:31 PM AKDT on August 27, 2015 (GMT -0800)
Kaltag | | Change Station
CLOSE
Current Station
Airport
Location: Kaltag,
Elevation: 200 ft
Nearby Weather Stations

Elev 200 ft 64.32 °N, 158.74 °W | Updated 38 minutes ago

Partly Cloudy
Partly Cloudy
52 °F
Feels Like 52 °F
N
12
Wind Variable Wind from West
Gusts 23 mph

Today
High -- | Low -- °F
--% Chance of Precip.
Yesterday
High -- | Low -- °F
Precip. -- in
7:01 AM 10:09 PM
Waxing Gibbous, 96% visible
Pressure 30.14 in
Visibility 10.0 miles
Clouds Few 5000 ft
Dew Point 33 °F
Humidity 49%
Rainfall 0.01 in
Snow Depth Not available.
UV 3 out of 12
Pollen Not available.
Air Quality Not available.
Flu Activity Not available.
METAR PAKV 280053Z AUTO 28010G20KT 10SM FEW050 11/01 A3014 RMK AO2 SLP207 T01110006 TSNO
Pressure 30.14 in
Visibility 10.0 miles
Clouds Few 5000 ft
Dew Point 33 °F
Humidity 49%
Rainfall 0.01 in
Snow Depth Not available.
UV 3 out of 12
Pollen Not available.
Air Quality Not available.
Flu Activity Not available.
METAR PAKV 280053Z AUTO 28010G20KT 10SM FEW050 11/01 A3014 RMK AO2 SLP207 T01110006 TSNO

10-Day Weather Forecast

×

Almanac

Astronomy

Aug. 27, 2015 Rise Set
Actual Time
Civil Twilight
Nautical Twilight
Astronomical Twilight
Moon
Length of Visible Light
Length of Day
Tomorrow will be .
, % of the Moon is Illuminated

Today's Extremes

State Highs State Lows

Community

WunderPhotos

Upload Photos

1,850,297 photos uploaded!

WunderBlogs® & News

Nearby

Air Quality

  Air Quality AQ Index Pollutant
Not available.

Snow Depth

Station Depth Elevation

Earthquake Activity

City Distance Mag. Time & Date
Minimum magnitude displayed is 2.5.

Coastal Water Temperatures

Place Temperature

Stations

Nearby Weather Stations

Station Location Temp. Windchill Dew Point Humidity Wind Precip. Elev Updated Type